createdAt,value
2022-10-04T00:02:23.977Z,101918.28
2022-10-04T00:04:59.978Z,101915.69
2022-10-04T00:07:31.563Z,101906.75
2022-10-04T00:10:04.772Z,101914.59
2022-10-04T00:12:36.283Z,101910.41
2022-10-04T00:15:07.097Z,101920.09
2022-10-04T00:17:36.028Z,101911.44
2022-10-04T00:20:05.675Z,101903.41
2022-10-04T00:22:34.323Z,101902.78
2022-10-04T00:25:20.529Z,101901.00
2022-10-04T00:28:18.126Z,101908.38
2022-10-04T00:30:46.137Z,101900.63
2022-10-04T00:33:39.400Z,101901.25
2022-10-04T00:36:46.827Z,101900.47
2022-10-04T00:39:26.182Z,101898.59
2022-10-04T00:42:10.376Z,101889.63
2022-10-04T00:44:46.263Z,101886.44
2022-10-04T00:47:22.540Z,101887.28
2022-10-04T00:49:57.638Z,101890.13
2022-10-04T00:52:30.161Z,101888.31
2022-10-04T00:55:01.453Z,101868.13
2022-10-04T00:57:33.552Z,101877.06
2022-10-04T01:00:05.489Z,101883.28
2022-10-04T01:02:39.354Z,101875.44
2022-10-04T01:05:12.274Z,101866.81
2022-10-04T01:07:45.510Z,101869.47
2022-10-04T01:10:19.603Z,101862.50
2022-10-04T01:12:53.937Z,101859.09
2022-10-04T01:15:30.186Z,101859.66
2022-10-04T01:18:11.004Z,101853.66
2022-10-04T01:20:46.630Z,101854.56
2022-10-04T01:23:33.129Z,101856.19
2022-10-04T01:26:01.419Z,101847.03
2022-10-04T01:28:29.480Z,101853.50
2022-10-04T01:30:57.395Z,101854.34
2022-10-04T01:33:26.289Z,101848.91
2022-10-04T01:35:54.367Z,101841.75
2022-10-04T01:38:23.784Z,101838.88
2022-10-04T01:41:00.016Z,101822.13
2022-10-04T01:43:33.783Z,101828.38
2022-10-04T01:46:08.805Z,101832.75
2022-10-04T01:48:38.816Z,101836.25
2022-10-04T01:51:09.828Z,101829.03
2022-10-04T01:53:48.696Z,101832.50
2022-10-04T01:56:20.447Z,101832.44
2022-10-04T01:58:52.493Z,101819.94
2022-10-04T02:01:27.843Z,101813.78
2022-10-04T02:04:01.678Z,101791.72
2022-10-04T02:06:31.243Z,101791.00
2022-10-04T02:09:03.123Z,101801.50
2022-10-04T02:11:31.991Z,101792.09
2022-10-04T02:14:01.360Z,101776.34
2022-10-04T02:16:29.887Z,101782.34
2022-10-04T02:18:58.553Z,101779.84
2022-10-04T02:21:26.675Z,101779.25
2022-10-04T02:23:55.221Z,101769.28
2022-10-04T02:26:24.445Z,101766.03
2022-10-04T02:28:52.475Z,101755.66
2022-10-04T02:31:41.061Z,101762.16
2022-10-04T02:34:09.611Z,101754.97
2022-10-04T02:36:39.535Z,101750.81
2022-10-04T02:39:14.254Z,101750.13
2022-10-04T02:41:50.040Z,101758.00
2022-10-04T02:44:25.068Z,101743.88
2022-10-04T02:46:57.568Z,101745.00
2022-10-04T02:49:31.963Z,101743.22
2022-10-04T02:52:04.775Z,101750.50
2022-10-04T02:54:37.951Z,101745.19
2022-10-04T02:57:16.177Z,101748.13
2022-10-04T02:59:44.330Z,101741.53
2022-10-04T03:02:29.487Z,101747.06
2022-10-04T03:05:05.003Z,101740.88
2022-10-04T03:07:35.495Z,101734.09
2022-10-04T03:10:08.883Z,101736.44
2022-10-04T03:12:38.968Z,101732.47
2022-10-04T03:15:09.318Z,101728.81
2022-10-04T03:17:38.241Z,101721.59
2022-10-04T03:20:07.714Z,101716.47
2022-10-04T03:22:35.702Z,101714.09
2022-10-04T03:25:04.109Z,101714.09
2022-10-04T03:27:35.667Z,101704.50
2022-10-04T03:30:05.596Z,101707.03
2022-10-04T03:32:34.291Z,101694.31
2022-10-04T03:35:05.163Z,101716.19
2022-10-04T03:37:37.533Z,101711.91
2022-10-04T03:40:11.079Z,101709.59
2022-10-04T03:42:40.281Z,101704.59
2022-10-04T03:45:16.025Z,101709.97
2022-10-04T03:47:48.551Z,101708.59
2022-10-04T03:50:23.848Z,101719.44
2022-10-04T03:52:55.763Z,101712.91
2022-10-04T03:55:26.607Z,101719.66
2022-10-04T03:57:54.593Z,101732.56
2022-10-04T04:00:23.843Z,101727.09
2022-10-04T04:02:58.451Z,101715.00
2022-10-04T04:05:31.629Z,101715.22
2022-10-04T04:08:08.353Z,101721.19
2022-10-04T04:10:39.625Z,101719.53
2022-10-04T04:13:18.962Z,101716.03
2022-10-04T04:15:48.658Z,101705.38
2022-10-04T04:18:24.265Z,101714.31
2022-10-04T04:20:58.993Z,101703.84
2022-10-04T04:23:32.920Z,101699.59
2022-10-04T04:26:17.851Z,101700.75
2022-10-04T04:28:50.242Z,101695.16
2022-10-04T04:31:24.248Z,101689.91
2022-10-04T04:33:59.349Z,101683.97
2022-10-04T04:36:28.994Z,101691.59
2022-10-04T04:39:26.208Z,101676.53
2022-10-04T04:41:54.146Z,101688.25
2022-10-04T04:44:22.232Z,101687.81
2022-10-04T04:46:51.593Z,101678.75
2022-10-04T04:49:20.035Z,101677.28
2022-10-04T04:51:52.042Z,101673.84
2022-10-04T04:54:26.906Z,101681.03
2022-10-04T04:56:56.994Z,101677.28
2022-10-04T04:59:28.130Z,101678.22
2022-10-04T05:01:57.549Z,101676.19
2022-10-04T05:04:26.322Z,101672.50
2022-10-04T05:07:06.240Z,101679.34
2022-10-04T05:09:36.411Z,101673.13
2022-10-04T05:12:09.898Z,101655.69
2022-10-04T05:14:41.130Z,101662.56
2022-10-04T05:17:20.079Z,101657.31
2022-10-04T05:19:48.224Z,101665.38
2022-10-04T05:22:21.395Z,101669.34
2022-10-04T05:24:52.763Z,101670.69
2022-10-04T05:27:28.626Z,101666.59
2022-10-04T05:30:03.599Z,101665.81
2022-10-04T05:32:45.271Z,101666.59
2022-10-04T05:35:19.136Z,101670.28
2022-10-04T05:37:58.887Z,101667.63
2022-10-04T05:40:45.403Z,101667.44
2022-10-04T05:43:38.728Z,101661.09
2022-10-04T05:46:18.540Z,101665.66
2022-10-04T05:48:52.726Z,101659.53
2022-10-04T05:51:21.759Z,101663.00
2022-10-04T05:53:50.942Z,101661.28
2022-10-04T05:56:35.918Z,101663.75
2022-10-04T05:59:15.193Z,101678.09
2022-10-04T06:01:50.474Z,101675.34
2022-10-04T06:04:33.506Z,101668.44
2022-10-04T06:07:05.572Z,101674.59
2022-10-04T06:09:49.866Z,101671.44
2022-10-04T06:12:30.218Z,101663.47
2022-10-04T06:15:10.976Z,101659.13
2022-10-04T06:17:53.661Z,101648.28
2022-10-04T06:20:58.074Z,101655.25
2022-10-04T06:23:31.006Z,101656.81
2022-10-04T06:26:04.753Z,101661.09
2022-10-04T06:28:37.991Z,101652.13
2022-10-04T06:31:27.443Z,101648.97
2022-10-04T06:34:14.656Z,101642.72
2022-10-04T06:37:06.777Z,101637.72
2022-10-04T06:40:00.633Z,101630.00
2022-10-04T06:42:53.827Z,101625.25
2022-10-04T06:45:38.717Z,101625.09
2022-10-04T06:48:29.331Z,101614.78
2022-10-04T06:51:06.711Z,101609.06
2022-10-04T06:53:47.085Z,101615.25
2022-10-04T06:56:50.153Z,101603.78
2022-10-04T06:59:38.582Z,101595.88
2022-10-04T07:02:14.006Z,101593.22
2022-10-04T07:05:07.610Z,101589.06
2022-10-04T07:07:40.036Z,101588.66
2022-10-04T07:10:21.986Z,101575.16
2022-10-04T07:13:12.689Z,101578.13
2022-10-04T07:15:52.097Z,101541.47
2022-10-04T07:18:28.521Z,101552.75
2022-10-04T07:21:03.940Z,101540.44
2022-10-04T07:23:40.701Z,101558.25
2022-10-04T07:26:20.948Z,101549.53
2022-10-04T07:29:13.526Z,101582.66
2022-10-04T07:31:43.592Z,101585.88
2022-10-04T07:34:16.466Z,101590.69
2022-10-04T07:36:49.163Z,101605.41
2022-10-04T07:39:21.499Z,101606.50
2022-10-04T07:41:53.681Z,101613.03
2022-10-04T07:44:34.532Z,101623.53
2022-10-04T07:47:10.982Z,101684.13
2022-10-04T07:49:41.057Z,101788.53
2022-10-04T07:52:43.087Z,101916.81
2022-10-04T07:55:24.187Z,101959.16
2022-10-04T07:58:03.087Z,101980.59
2022-10-04T08:00:41.583Z,101971.22
2022-10-04T08:03:27.859Z,101989.66
2022-10-04T08:06:07.216Z,101978.75
2022-10-04T08:08:52.153Z,101867.78
2022-10-04T08:11:31.526Z,101834.50
2022-10-04T08:14:14.476Z,101853.47
2022-10-04T08:17:00.144Z,101873.59
2022-10-04T08:19:41.856Z,101940.03
2022-10-04T08:22:22.525Z,101985.44
2022-10-04T08:25:00.708Z,101963.56
2022-10-04T08:27:39.687Z,101964.75
2022-10-04T08:30:13.127Z,101949.47
2022-10-04T08:32:56.872Z,101946.00
2022-10-04T08:35:37.625Z,101834.53
2022-10-04T08:38:22.335Z,101798.41
2022-10-04T08:41:26.117Z,101746.88
2022-10-04T08:44:34.618Z,101740.47
2022-10-04T08:51:05.050Z,101721.06
2022-10-04T08:54:07.906Z,101735.78
2022-10-04T08:56:51.683Z,101658.25
2022-10-04T08:59:46.672Z,101633.28
2022-10-04T09:03:01.336Z,101637.53
2022-10-04T09:05:55.222Z,101593.81
2022-10-04T09:08:59.248Z,101530.97
2022-10-04T09:11:46.724Z,101522.03
2022-10-04T09:14:40.845Z,101527.91
2022-10-04T09:17:22.602Z,101528.13
2022-10-04T09:20:26.349Z,101577.78
2022-10-04T09:23:00.800Z,101592.06
2022-10-04T09:25:50.851Z,101579.88
2022-10-04T09:28:35.094Z,101489.31
2022-10-04T09:31:23.945Z,101461.59
2022-10-04T09:34:23.934Z,101449.75
2022-10-04T09:37:12.586Z,101441.78
2022-10-04T09:40:18.616Z,101426.97
2022-10-04T09:43:14.278Z,101432.44
2022-10-04T09:46:08.500Z,101412.38
2022-10-04T09:48:43.123Z,101379.28
2022-10-04T09:51:42.380Z,101328.16
2022-10-04T09:54:33.826Z,101341.56
2022-10-04T09:57:30.289Z,101400.22
2022-10-04T10:00:10.140Z,101438.63
2022-10-04T10:03:23.674Z,101654.09
2022-10-04T10:06:19.584Z,101716.75
2022-10-04T10:09:03.243Z,101706.16
2022-10-04T10:12:01.800Z,101683.81
2022-10-04T10:15:09.857Z,101687.03
2022-10-04T10:17:45.355Z,101624.53
2022-10-04T10:20:43.317Z,101609.94
2022-10-04T10:23:35.740Z,101583.50
2022-10-04T10:26:24.052Z,101579.22
2022-10-04T10:29:25.523Z,101550.22
2022-10-04T10:32:11.635Z,101539.97
2022-10-04T10:34:58.203Z,101552.00
2022-10-04T10:37:44.972Z,101544.97
2022-10-04T10:40:48.651Z,101537.03
2022-10-04T10:43:34.988Z,101538.06
2022-10-04T10:46:26.456Z,101536.09
2022-10-04T10:49:22.400Z,101524.47
2022-10-04T10:52:26.832Z,101526.88
2022-10-04T10:55:49.203Z,101505.41
2022-10-04T10:59:05.748Z,101519.59
2022-10-04T11:01:58.278Z,101540.44
2022-10-04T11:04:54.699Z,101528.50
2022-10-04T11:07:44.982Z,101572.50
2022-10-04T11:11:03.993Z,101640.84
2022-10-04T11:14:19.187Z,101634.72
2022-10-04T11:17:21.376Z,101676.53
2022-10-04T11:20:27.708Z,101628.06
2022-10-04T11:23:35.039Z,101538.78
2022-10-04T11:26:41.307Z,101470.63
2022-10-04T11:29:22.960Z,101453.81
2022-10-04T11:32:30.110Z,101446.81
2022-10-04T11:35:27.504Z,101436.44
2022-10-04T11:38:11.307Z,101436.13
2022-10-04T11:41:13.463Z,101431.19
2022-10-04T11:44:29.416Z,101416.28
2022-10-04T11:47:00.952Z,101413.06
2022-10-04T11:50:01.233Z,101411.34
2022-10-04T11:53:12.095Z,101410.59
2022-10-04T11:56:17.404Z,101418.75
2022-10-04T11:58:59.195Z,101403.25
2022-10-04T12:02:02.302Z,101402.34
2022-10-04T12:04:53.825Z,101392.75
2022-10-04T12:07:35.104Z,101388.75
2022-10-04T12:10:20.821Z,101374.50
2022-10-04T12:13:14.247Z,101371.59
2022-10-04T12:15:52.907Z,101367.28
2022-10-04T12:19:09.079Z,101352.94
2022-10-04T12:22:00.877Z,101351.19
2022-10-04T12:24:51.122Z,101340.28
2022-10-04T12:27:46.811Z,101339.47
2022-10-04T12:30:30.857Z,101324.22
2022-10-04T12:33:11.894Z,101329.88
2022-10-04T12:35:55.680Z,101310.22
2022-10-04T12:38:51.730Z,101298.63
2022-10-04T12:41:31.849Z,101302.84
2022-10-04T12:44:18.121Z,101302.53
2022-10-04T12:47:00.178Z,101307.97
2022-10-04T12:49:41.020Z,101296.47
2022-10-04T12:52:16.776Z,101295.47
2022-10-04T12:55:41.056Z,101292.47
2022-10-04T12:58:20.316Z,101277.25
2022-10-04T13:01:06.461Z,101257.38
2022-10-04T13:03:59.792Z,101279.88
2022-10-04T13:06:43.219Z,101276.44
2022-10-04T13:09:17.939Z,101277.19
2022-10-04T13:12:09.829Z,101254.19
2022-10-04T13:15:05.163Z,101277.19
2022-10-04T13:17:49.433Z,101282.56
2022-10-04T13:20:37.059Z,101273.06
2022-10-04T13:23:44.396Z,101254.66
2022-10-04T13:26:34.830Z,101252.22
2022-10-04T13:29:08.344Z,101258.28
2022-10-04T13:31:43.845Z,101249.72
2022-10-04T13:34:27.082Z,101258.88
2022-10-04T13:37:13.938Z,101244.97
2022-10-04T13:40:00.790Z,101245.53
2022-10-04T13:43:19.372Z,101227.94
2022-10-04T13:46:03.395Z,101235.59
2022-10-04T13:48:41.529Z,101225.06
2022-10-04T13:51:37.250Z,101203.84
2022-10-04T13:54:37.126Z,101222.66
2022-10-04T13:57:28.293Z,101223.63
2022-10-04T14:00:04.078Z,101222.88
2022-10-04T14:03:24.542Z,101205.03
2022-10-04T14:06:20.129Z,101207.31
2022-10-04T14:09:19.376Z,101200.22
2022-10-04T14:12:32.277Z,101210.63
2022-10-04T14:15:44.938Z,101191.03
2022-10-04T14:18:51.000Z,101198.25
2022-10-04T14:21:32.984Z,101195.03
2022-10-04T14:24:38.887Z,101184.66
2022-10-04T14:27:27.636Z,101207.06
2022-10-04T14:30:17.727Z,101216.50
2022-10-04T14:33:34.103Z,101212.41
2022-10-04T14:36:23.776Z,101177.13
2022-10-04T14:39:24.642Z,101203.88
2022-10-04T14:42:35.704Z,101204.66
2022-10-04T14:45:19.045Z,101208.84
2022-10-04T14:48:24.467Z,101198.31
2022-10-04T14:51:06.682Z,101184.69
2022-10-04T14:53:42.118Z,101194.38
2022-10-04T14:56:42.387Z,101183.72
2022-10-04T14:59:43.163Z,101190.78
2022-10-04T15:03:05.200Z,101196.16
2022-10-04T15:05:57.819Z,101200.00
2022-10-04T15:08:59.077Z,101203.69
2022-10-04T15:12:21.511Z,101192.34
2022-10-04T15:15:12.025Z,101194.19
2022-10-04T15:17:44.964Z,101198.78
2022-10-04T15:20:25.023Z,101202.97
2022-10-04T15:22:58.227Z,101194.09
2022-10-04T15:25:42.955Z,101184.94
2022-10-04T15:28:49.227Z,101198.47
2022-10-04T15:31:34.540Z,101193.09
2022-10-04T15:34:13.357Z,101201.25
2022-10-04T15:37:09.289Z,101206.22
2022-10-04T15:40:18.819Z,101172.63
2022-10-04T15:43:22.984Z,101195.88
2022-10-04T15:46:22.819Z,101187.97
2022-10-04T15:49:05.867Z,101184.22
2022-10-04T15:52:03.565Z,101161.16
2022-10-04T15:55:10.388Z,101163.56
2022-10-04T15:58:26.989Z,101179.41
2022-10-04T16:01:22.452Z,101186.19
2022-10-04T16:04:11.632Z,101186.91
2022-10-04T16:06:49.019Z,101189.66
2022-10-04T16:09:27.828Z,101175.78
2022-10-04T16:12:08.547Z,101206.41
2022-10-04T16:14:52.440Z,101206.53
2022-10-04T16:17:44.951Z,101230.84
2022-10-04T16:20:40.715Z,101226.53
2022-10-04T16:23:34.212Z,101272.69
2022-10-04T16:26:47.584Z,101282.16
2022-10-04T16:30:21.733Z,101284.72
2022-10-04T16:33:11.238Z,101297.81
2022-10-04T16:35:47.128Z,101347.31
2022-10-04T16:38:24.642Z,101421.63
2022-10-04T16:41:14.921Z,101434.03
2022-10-04T16:43:54.546Z,101416.91
2022-10-04T16:46:32.449Z,101427.03
2022-10-04T16:49:05.075Z,101424.00
2022-10-04T16:52:14.812Z,101355.19
2022-10-04T16:55:04.766Z,101313.34
2022-10-04T16:57:33.826Z,101292.78
2022-10-04T17:00:22.160Z,101287.16
2022-10-04T17:03:13.587Z,101284.25
2022-10-04T17:05:48.859Z,101263.75
2022-10-04T17:08:24.752Z,101254.78
2022-10-04T17:11:33.775Z,101275.28
2022-10-04T17:14:06.845Z,101260.59
2022-10-04T17:16:39.059Z,101267.66
2022-10-04T17:19:22.088Z,101272.63
2022-10-04T17:22:04.236Z,101263.09
2022-10-04T17:24:43.189Z,101259.16
2022-10-04T17:27:44.975Z,101227.28
2022-10-04T17:30:23.716Z,101224.16
2022-10-04T17:33:08.797Z,101146.16
2022-10-04T17:36:19.230Z,101096.31
2022-10-04T17:38:59.098Z,101044.28
2022-10-04T17:41:45.640Z,101026.22
2022-10-04T17:44:37.414Z,101017.69
2022-10-04T17:47:22.889Z,101008.53
2022-10-04T17:50:18.256Z,101024.31
2022-10-04T17:53:08.289Z,101045.56
2022-10-04T17:55:48.792Z,101047.88
2022-10-04T17:58:21.055Z,101031.72
2022-10-04T18:01:06.706Z,101045.03
2022-10-04T18:03:40.097Z,101040.59
2022-10-04T18:06:20.509Z,101049.41
2022-10-04T18:08:55.190Z,101020.03
2022-10-04T18:11:30.715Z,101018.13
2022-10-04T18:14:04.179Z,101018.91
2022-10-04T18:16:44.869Z,101006.59
2022-10-04T18:19:36.243Z,101013.38
2022-10-04T18:22:15.037Z,100991.94
2022-10-04T18:24:44.465Z,100974.09
2022-10-04T18:27:19.573Z,100959.53
2022-10-04T18:30:00.735Z,100942.06
2022-10-04T18:32:35.920Z,100932.84
2022-10-04T18:35:24.138Z,100931.66
2022-10-04T18:38:16.882Z,100922.59
2022-10-04T18:40:57.739Z,100934.66
2022-10-04T18:43:31.534Z,100937.16
2022-10-04T18:46:04.457Z,100958.69
2022-10-04T18:48:45.570Z,100956.81
2022-10-04T18:51:26.208Z,100950.44
2022-10-04T18:54:09.988Z,100951.00
2022-10-04T18:56:49.206Z,100952.81
2022-10-04T18:59:46.578Z,100951.38
2022-10-04T19:02:27.344Z,100954.81
2022-10-04T19:05:13.547Z,100942.81
2022-10-04T19:07:51.161Z,100945.59
2022-10-04T19:10:31.332Z,100944.63
2022-10-04T19:13:18.964Z,100946.19
2022-10-04T19:16:12.306Z,100930.06
2022-10-04T19:19:08.820Z,100932.06
2022-10-04T19:21:48.513Z,100932.91
2022-10-04T19:24:42.988Z,100929.38
2022-10-04T19:27:25.235Z,100926.38
2022-10-04T19:30:16.639Z,100934.47
2022-10-04T19:32:58.108Z,100941.53
2022-10-04T19:35:36.718Z,100944.06
2022-10-04T19:38:26.364Z,100982.03
2022-10-04T19:41:03.646Z,100997.03
2022-10-04T19:43:42.701Z,100994.97
2022-10-04T19:46:32.996Z,100973.84
2022-10-04T19:49:14.536Z,100970.84
2022-10-04T19:51:51.282Z,101007.00
2022-10-04T19:54:29.656Z,101036.22
2022-10-04T19:57:02.629Z,101035.44
2022-10-04T19:59:38.417Z,101059.41
2022-10-04T20:02:19.127Z,101066.78
2022-10-04T20:04:48.871Z,101094.72
2022-10-04T20:07:23.712Z,101138.47
2022-10-04T20:09:55.963Z,101204.56
2022-10-04T20:12:41.504Z,101218.78
2022-10-04T20:19:18.178Z,101232.28
2022-10-04T20:21:47.627Z,101244.78
2022-10-04T20:24:22.183Z,101231.50
2022-10-04T20:27:06.759Z,101254.78
2022-10-04T20:30:04.221Z,101259.94
2022-10-04T20:33:01.118Z,101263.41
2022-10-04T20:36:12.480Z,101265.13
2022-10-04T20:38:52.426Z,101259.19
2022-10-04T20:42:24.385Z,101270.47
2022-10-04T20:45:23.874Z,101268.38
2022-10-04T20:47:54.215Z,101270.34
2022-10-04T20:50:42.261Z,101284.25
2022-10-04T20:53:22.339Z,101287.16
2022-10-04T20:56:13.825Z,101299.56
2022-10-04T20:58:42.743Z,101300.50
2022-10-04T21:01:43.006Z,101304.91
2022-10-04T21:04:15.278Z,101304.75
2022-10-04T21:06:59.161Z,101309.22
2022-10-04T21:09:33.608Z,101280.94
2022-10-04T21:12:29.986Z,101315.00
2022-10-04T21:15:07.984Z,101318.53
2022-10-04T21:17:48.381Z,101314.88
2022-10-04T21:20:43.996Z,101307.78
2022-10-04T21:23:24.090Z,101308.16
2022-10-04T21:25:54.375Z,101310.69
2022-10-04T21:28:37.508Z,101301.16
2022-10-04T21:31:05.735Z,101325.19
2022-10-04T21:33:38.233Z,101342.94
2022-10-04T21:36:09.866Z,101331.47
2022-10-04T21:38:38.851Z,101332.03
2022-10-04T21:41:10.122Z,101359.03
2022-10-04T21:43:44.306Z,101354.03
2022-10-04T21:46:20.618Z,101363.78
2022-10-04T21:48:50.775Z,101361.72
2022-10-04T21:51:18.936Z,101360.63
2022-10-04T21:53:47.330Z,101363.16
2022-10-04T21:56:15.416Z,101365.97
2022-10-04T21:58:45.940Z,101367.69
2022-10-04T22:01:14.334Z,101367.91
2022-10-04T22:03:42.618Z,101357.50
2022-10-04T22:06:13.056Z,101359.03
2022-10-04T22:08:40.882Z,101362.38
2022-10-04T22:11:08.775Z,101352.63
2022-10-04T22:13:37.959Z,101358.09
2022-10-04T22:16:07.801Z,101353.72
2022-10-04T22:18:36.668Z,101365.75
2022-10-04T22:21:04.677Z,101363.94
2022-10-04T22:23:39.004Z,101364.66
2022-10-04T22:26:12.353Z,101360.03
2022-10-04T22:28:47.972Z,101374.19
2022-10-04T22:31:19.828Z,101360.91
2022-10-04T22:33:53.423Z,101345.97
2022-10-04T22:36:25.108Z,101331.91
2022-10-04T22:38:59.018Z,101346.69
2022-10-04T22:41:30.190Z,101340.06
2022-10-04T22:44:03.369Z,101327.84
2022-10-04T22:46:40.228Z,101342.44
2022-10-04T22:49:12.689Z,101336.94
2022-10-04T22:51:42.234Z,101327.44
2022-10-04T22:54:13.029Z,101322.88
2022-10-04T22:56:41.486Z,101336.72
2022-10-04T22:59:11.449Z,101326.50
2022-10-04T23:01:41.470Z,101331.75
2022-10-04T23:04:16.205Z,101327.19
2022-10-04T23:06:46.716Z,101327.19
2022-10-04T23:09:14.926Z,101322.00
2022-10-04T23:11:43.175Z,101326.25
2022-10-04T23:14:11.024Z,101337.72
2022-10-04T23:16:40.342Z,101334.13
2022-10-04T23:19:13.457Z,101330.03
2022-10-04T23:21:46.050Z,101327.50
2022-10-04T23:24:16.872Z,101330.88
2022-10-04T23:26:46.983Z,101327.84
2022-10-04T23:29:19.693Z,101336.16
2022-10-04T23:31:52.713Z,101338.81
2022-10-04T23:34:24.717Z,101339.91
2022-10-04T23:36:52.771Z,101332.06
2022-10-04T23:39:25.788Z,101330.16
2022-10-04T23:41:54.472Z,101323.28
2022-10-04T23:44:23.775Z,101344.31
2022-10-04T23:46:53.204Z,101338.53
2022-10-04T23:49:22.628Z,101319.91
2022-10-04T23:51:55.967Z,101323.28
2022-10-04T23:54:24.533Z,101328.69
2022-10-04T23:56:52.691Z,101327.84
2022-10-04T23:59:23.159Z,101324.22
